To NAV CANADA Home Page Login to a new session Search on AWWS site Feedback and Comments Disclaimer Vers la page française équivalente Tips FAQ What's new on the site To the Forecasts and Observations / NOTAM section To "File a Flight Plan" website Publications and other links Update of the User's profile FIC Telephone Numbers My Weather Data Folder Route Weather Data Regional Weather Data Local Weather Data To the Forecasts and Observations / NOTAM section
Request Generated 05/30/2016 at 14:22:56 UTC . Weather information available at that time is displayed.

METAR/TAF

ISLAND LAKE/MB    

METAR CYIV 301400Z 07004KT 030V090 15SM SCT020 OVC050 08/07 A3003 RMK
SC4SC4 SLP181=
LWIS CYIV 301300Z AUTO 07004KT 08/06 A3002=
METAR CYIV 301200Z 02004KT 15SM BKN020 OVC050 08/07 A3000 RMK SC5SC3
SLP170=

TAF CYIV 301238Z 3013/3101 VRB03KT P6SM SCT010 BKN025 TEMPO 3013/3019
5SM -RA BR OVC010
FM301900 06006KT P6SM BKN015
RMK NXT FCST BY 301900Z=
Your time UTC time
Weather data provided by Environment Canada and NAV CANADA